Terminal Aerodrome Forecast
Issued by NWS Blacksburg, VA

Current Version | Previous Version | Graphics & Text | Print | Product List | Glossary On
Versions: 1 2 3 4 5 6 7 8 9 10 11 12 13 14 15 16 17 18 19 20 21 22 23 24 25 26 27 28 29 30 31 32 33 34 35 36 37 38 39 40 41 42 43 44 45
000
FTUS41 KRNK 162001 AAA
TAFBLF
TAF AMD
KBLF 162001Z 1620/1718 26005KT P6SM FEW010 SCT026 BKN050
     FM170300 32002KT 4SM BR BKN005
     FM171000 09002KT 2SM -DZ BR OVC004
     FM171600 14003KT P6SM SCT008 BKN012=

USA.gov is the U.S. government's official web portal to all federal, state and local government web resources and services.